Impacts TAF Board
For situational awareness. Not to be used for flight planning purposes.
IDs:

KGCN - Grand Canyon Park Ar, AZ, US

Issued at 1120 UTC 30 Oct 2020
Updated at 1617 UTC 30 Oct 2020
Potential Impact None Slight Moderate High
Time1554Z 30/17Z 30/18Z 30/19Z 30/20Z 30/21Z 30/22Z 30/23Z 31/00Z 31/01Z 31/02Z 31/03Z 31/04Z 31/05Z>>
Type OBS PRVL PRVL PRVL PRVL PRVL PRVL PRVL PRVL PRVL PRVL PRVL PRVL PRVL
VIS 10 >6 >6 >6 >6 >6 >6 >6 >6 >6 >6 >6 >6 >6
CIG -- -- -- -- -- -- -- -- -- -- -- -- -- --
Cover CLR SKC SKC SKC SKC SKC SKC SKC SKC SKC SKC SKC SKC SKC
FltCat VFR VFR VFR VFR VFR VFR VFR VFR VFR VFR VFR VFR VFR VFR
WX -- -- -- -- -- -- -- -- -- -- -- -- -- --
WDir 120 VRB VRB VRB VRB VRB VRB VRB VRB VRB VRB VRB VRB VRB
WSpd 5 5 5 5 5 5 5 5 5 5 5 5 5 5
WGst -- -- -- -- -- -- -- -- -- -- -- -- -- --
Raw TAF
KGCN 301120Z 3012/3112 VRB05KT P6SM SKC

Raw METAR
KGCN 301554Z 12005KT 10SM CLR 12/M03 A3031 RMK AO2 SLP226 T01221033
KGCN 301454Z 00000KT 9SM CLR M01/M09 A3029 RMK AO2 SLP251 T10061094 53003
KGCN 301354Z 00000KT 10SM CLR M05/M12 A3029 RMK AO2 SLP255 T10501117

METAR Board
Radar Display
Forecast Discussion
For situational awareness. Not to be used for flight planning purposes.